createdAt,value
2018-12-10T00:00:20.610Z,100091.42
2018-12-10T00:02:49.959Z,100094.16
2018-12-10T00:05:17.403Z,100114.10
2018-12-10T00:07:44.824Z,100099.34
2018-12-10T00:10:12.259Z,100097.80
2018-12-10T00:12:39.712Z,100096.81
2018-12-10T00:15:07.150Z,100094.02
2018-12-10T00:17:34.555Z,100107.25
2018-12-10T00:20:01.985Z,100098.30
2018-12-10T00:22:29.387Z,100109.12
2018-12-10T00:24:56.812Z,100099.97
2018-12-10T00:27:24.232Z,100105.92
2018-12-10T00:29:51.650Z,100116.17
2018-12-10T00:32:19.064Z,100122.43
2018-12-10T00:34:46.471Z,100129.30
2018-12-10T00:37:13.979Z,100140.95
2018-12-10T00:39:41.391Z,100144.44
2018-12-10T00:42:08.810Z,100147.20
2018-12-10T00:44:36.242Z,100139.81
2018-12-10T00:47:03.787Z,100150.81
2018-12-10T00:49:31.225Z,100145.63
2018-12-10T00:51:58.646Z,100155.58
2018-12-10T00:54:26.090Z,100151.03
2018-12-10T00:56:53.599Z,100155.47
2018-12-10T00:59:21.022Z,100153.39
2018-12-10T01:01:48.456Z,100174.77
2018-12-10T01:04:15.903Z,100177.08
2018-12-10T01:06:43.315Z,100183.37
2018-12-10T01:09:10.751Z,100189.57
2018-12-10T01:11:38.198Z,100190.59
2018-12-10T01:14:05.761Z,100193.23
2018-12-10T01:16:33.170Z,100202.69
2018-12-10T01:19:00.608Z,100198.91
2018-12-10T01:21:28.034Z,100203.52
2018-12-10T01:23:55.443Z,100212.64
2018-12-10T01:26:22.998Z,100213.83
2018-12-10T01:28:50.406Z,100213.03
2018-12-10T01:31:17.830Z,100217.42
2018-12-10T01:33:45.291Z,100219.45
2018-12-10T01:36:12.732Z,100221.47
2018-12-10T01:38:40.148Z,100233.64
2018-12-10T01:41:07.554Z,100259.81
2018-12-10T01:43:34.971Z,100263.91
2018-12-10T01:46:02.391Z,100286.06
2018-12-10T01:48:29.807Z,100285.16
2018-12-10T01:50:57.205Z,100267.76
2018-12-10T01:53:24.625Z,100263.87
2018-12-10T01:55:52.029Z,100254.47
2018-12-10T01:58:19.438Z,100266.16
2018-12-10T02:00:46.850Z,100266.77
2018-12-10T02:03:14.269Z,100269.13
2018-12-10T02:05:41.681Z,100270.59
2018-12-10T02:08:09.112Z,100269.69
2018-12-10T02:10:36.509Z,100276.48
2018-12-10T02:13:04.067Z,100281.12
2018-12-10T02:15:31.470Z,100285.05
2018-12-10T02:17:58.896Z,100294.44
2018-12-10T02:20:26.314Z,100289.44
2018-12-10T02:22:53.723Z,100282.08
2018-12-10T02:25:21.221Z,100296.75
2018-12-10T02:27:48.693Z,100293.81
2018-12-10T02:30:16.107Z,100293.71
2018-12-10T02:32:43.694Z,100295.35
2018-12-10T02:35:11.132Z,100298.29
2018-12-10T02:37:38.555Z,100304.87
2018-12-10T02:40:06.399Z,100307.70
2018-12-10T02:45:55.372Z,100305.25
2018-12-10T02:48:22.783Z,100306.89
2018-12-10T02:50:50.206Z,100298.34
2018-12-10T02:53:17.655Z,100302.88
2018-12-10T02:55:45.095Z,100305.86
2018-12-10T02:58:12.498Z,100304.02
2018-12-10T03:00:39.938Z,100312.77
2018-12-10T03:03:07.369Z,100316.45
2018-12-10T03:05:34.868Z,100322.23
2018-12-10T03:08:02.313Z,100324.66
2018-12-10T03:10:29.731Z,100332.03
2018-12-10T03:12:57.174Z,100333.92
2018-12-10T03:15:24.704Z,100325.77
2018-12-10T03:17:52.144Z,100334.11
2018-12-10T03:20:19.583Z,100334.45
2018-12-10T03:22:47.071Z,100339.38
2018-12-10T03:25:14.514Z,100345.16
2018-12-10T03:27:41.933Z,100342.63
2018-12-10T03:30:09.393Z,100342.87
2018-12-10T03:32:36.939Z,100346.00
2018-12-10T03:35:04.485Z,100350.33
2018-12-10T03:37:32.008Z,100346.41
2018-12-10T03:39:59.446Z,100350.13
2018-12-10T03:42:26.864Z,100359.94
2018-12-10T03:44:54.305Z,100362.57
2018-12-10T03:47:21.827Z,100353.68
2018-12-10T03:49:49.257Z,100358.20
2018-12-10T03:52:16.663Z,100357.06
2018-12-10T03:54:44.085Z,100354.67
2018-12-10T03:57:11.527Z,100356.36
2018-12-10T03:59:38.958Z,100359.05
2018-12-10T04:02:06.362Z,100362.43
2018-12-10T04:04:33.780Z,100368.45
2018-12-10T04:07:01.201Z,100380.45
2018-12-10T04:09:28.638Z,100378.41
2018-12-10T04:11:56.064Z,100386.47
2018-12-10T04:14:23.474Z,100382.84
2018-12-10T04:16:50.894Z,100377.06
2018-12-10T04:19:18.310Z,100384.61
2018-12-10T04:21:45.741Z,100383.52
2018-12-10T04:24:13.244Z,100388.30
2018-12-10T04:26:40.659Z,100375.66
2018-12-10T04:29:08.083Z,100386.92
2018-12-10T04:31:36.416Z,100386.63
2018-12-10T04:34:04.077Z,100390.15
2018-12-10T04:36:31.492Z,100387.16
2018-12-10T04:38:58.906Z,100397.34
2018-12-10T04:41:26.348Z,100401.30
2018-12-10T04:43:53.776Z,100400.64
2018-12-10T04:46:21.204Z,100401.49
2018-12-10T04:48:48.596Z,100407.60
2018-12-10T04:51:16.130Z,100408.14
2018-12-10T04:53:43.561Z,100406.80
2018-12-10T04:56:11.020Z,100415.45
2018-12-10T04:58:38.418Z,100421.42
2018-12-10T05:01:05.860Z,100425.30
2018-12-10T05:03:33.277Z,100424.55
2018-12-10T05:06:00.703Z,100428.68
2018-12-10T05:08:28.133Z,100428.11
2018-12-10T05:10:55.578Z,100436.27
2018-12-10T05:13:22.989Z,100440.86
2018-12-10T05:15:50.400Z,100437.29
2018-12-10T05:18:17.835Z,100442.15
2018-12-10T05:20:45.284Z,100440.81
2018-12-10T05:23:12.678Z,100451.52
2018-12-10T05:25:40.099Z,100451.16
2018-12-10T05:28:07.511Z,100455.70
2018-12-10T05:30:34.938Z,100453.75
2018-12-10T05:33:02.335Z,100462.61
2018-12-10T05:35:29.762Z,100460.34
2018-12-10T05:37:57.196Z,100469.03
2018-12-10T05:40:24.653Z,100464.27
2018-12-10T05:42:52.064Z,100461.23
2018-12-10T05:45:19.478Z,100463.20
2018-12-10T05:47:46.886Z,100464.55
2018-12-10T05:50:14.319Z,100463.13
2018-12-10T05:52:41.732Z,100477.59
2018-12-10T05:55:09.174Z,100472.46
2018-12-10T05:57:36.610Z,100478.34
2018-12-10T06:00:04.483Z,100472.46
2018-12-10T06:02:31.924Z,100474.47
2018-12-10T06:04:59.334Z,100469.52
2018-12-10T06:07:26.745Z,100478.17
2018-12-10T06:09:54.150Z,100479.96
2018-12-10T06:12:21.604Z,100491.69
2018-12-10T06:14:49.023Z,100493.64
2018-12-10T06:17:16.434Z,100489.27
2018-12-10T06:19:43.864Z,100497.66
2018-12-10T06:22:12.363Z,100500.33
2018-12-10T06:24:39.775Z,100497.06
2018-12-10T06:27:07.203Z,100502.19
2018-12-10T06:29:34.626Z,100505.22
2018-12-10T06:32:02.052Z,100511.80
2018-12-10T06:34:29.555Z,100524.97
2018-12-10T06:36:56.967Z,100522.02
2018-12-10T06:39:24.462Z,100524.48
2018-12-10T06:41:51.886Z,100522.70
2018-12-10T06:44:19.311Z,100522.17
2018-12-10T06:46:46.750Z,100534.92
2018-12-10T06:49:14.191Z,100527.21
2018-12-10T06:51:41.621Z,100520.34
2018-12-10T06:54:09.546Z,100524.75
2018-12-10T06:56:36.999Z,100536.91
2018-12-10T06:59:04.477Z,100533.16
2018-12-10T07:01:31.997Z,100539.23
2018-12-10T07:03:59.556Z,100548.69
2018-12-10T07:06:26.985Z,100555.02
2018-12-10T07:08:54.417Z,100567.16
2018-12-10T07:11:21.860Z,100558.20
2018-12-10T07:13:49.279Z,100556.18
2018-12-10T07:16:16.869Z,100552.88
2018-12-10T07:18:44.628Z,100557.70
2018-12-10T07:21:12.150Z,100553.19
2018-12-10T07:23:41.019Z,100554.63
2018-12-10T07:26:08.600Z,100558.00
2018-12-10T07:28:37.896Z,100568.87
2018-12-10T07:31:05.514Z,100562.81
2018-12-10T07:33:32.963Z,100567.05
2018-12-10T07:36:00.371Z,100566.88
2018-12-10T07:38:27.793Z,100570.30
2018-12-10T07:40:55.215Z,100578.11
2018-12-10T07:43:22.659Z,100580.50
2018-12-10T07:45:50.107Z,100584.25
2018-12-10T07:48:17.514Z,100591.53
2018-12-10T07:50:44.944Z,100587.56
2018-12-10T07:53:12.358Z,100577.13
2018-12-10T07:55:39.796Z,100587.11
2018-12-10T07:58:07.226Z,100586.92
2018-12-10T08:00:34.877Z,100589.02
2018-12-10T08:03:02.514Z,100595.08
2018-12-10T08:05:29.987Z,100602.36
2018-12-10T08:07:57.663Z,100601.42
2018-12-10T08:10:25.318Z,100604.14
2018-12-10T08:12:52.944Z,100607.08
2018-12-10T08:15:20.414Z,100605.30
2018-12-10T08:17:47.817Z,100608.46
2018-12-10T08:20:15.245Z,100607.08
2018-12-10T08:22:42.658Z,100609.73
2018-12-10T08:25:10.348Z,100614.91
2018-12-10T08:27:37.770Z,100620.58
2018-12-10T08:30:05.199Z,100621.59
2018-12-10T08:32:32.632Z,100620.70
2018-12-10T08:35:00.065Z,100624.19
2018-12-10T08:37:27.504Z,100629.23
2018-12-10T08:39:54.935Z,100634.49
2018-12-10T08:42:22.384Z,100645.74
2018-12-10T08:44:49.807Z,100644.28
2018-12-10T08:47:17.220Z,100636.83
2018-12-10T08:49:44.938Z,100650.08
2018-12-10T08:52:12.355Z,100645.71
2018-12-10T08:54:39.991Z,100650.66
2018-12-10T08:57:07.452Z,100660.75
2018-12-10T08:59:35.002Z,100653.30
2018-12-10T09:02:02.511Z,100652.09
2018-12-10T09:04:29.919Z,100654.63
2018-12-10T09:06:57.332Z,100652.09
2018-12-10T09:09:24.779Z,100669.32
2018-12-10T09:11:52.203Z,100666.33
2018-12-10T09:14:19.623Z,100671.20
2018-12-10T09:16:47.084Z,100681.89
2018-12-10T09:19:14.555Z,100692.02
2018-12-10T09:21:41.996Z,100694.41
2018-12-10T09:24:09.405Z,100703.27
2018-12-10T09:26:36.811Z,100687.38
2018-12-10T09:29:04.260Z,100693.61
2018-12-10T09:31:31.706Z,100696.73
2018-12-10T09:33:59.122Z,100687.95
2018-12-10T09:36:26.599Z,100684.67
2018-12-10T09:38:54.052Z,100684.23
2018-12-10T09:41:21.510Z,100682.50
2018-12-10T09:43:48.959Z,100685.00
2018-12-10T09:46:16.478Z,100677.60
2018-12-10T09:48:43.911Z,100682.09
2018-12-10T09:51:11.383Z,100681.31
2018-12-10T09:53:38.795Z,100681.56
2018-12-10T09:56:06.235Z,100685.27
2018-12-10T09:58:33.664Z,100676.72
2018-12-10T10:01:01.301Z,100685.44
2018-12-10T10:03:28.711Z,100685.00
2018-12-10T10:05:56.119Z,100689.91
2018-12-10T10:08:23.539Z,100693.94
2018-12-10T10:10:50.973Z,100697.33
2018-12-10T10:13:18.377Z,100688.26
2018-12-10T10:15:45.808Z,100682.45
2018-12-10T10:18:13.248Z,100688.93
2018-12-10T10:20:40.645Z,100677.55
2018-12-10T10:23:08.060Z,100678.30
2018-12-10T10:25:35.484Z,100682.02
2018-12-10T10:28:02.887Z,100668.53
2018-12-10T10:30:30.313Z,100676.52
2018-12-10T10:32:57.719Z,100686.38
2018-12-10T10:35:25.136Z,100695.84
2018-12-10T10:37:52.573Z,100687.86
2018-12-10T10:40:20.028Z,100684.19
2018-12-10T10:42:47.443Z,100690.58
2018-12-10T10:45:14.870Z,100677.99
2018-12-10T10:47:42.291Z,100699.16
2018-12-10T10:50:09.714Z,100707.64
2018-12-10T10:52:37.135Z,100709.31
2018-12-10T10:55:05.318Z,100683.19
2018-12-10T10:57:32.754Z,100670.86
2018-12-10T11:00:00.161Z,100666.30
2018-12-10T11:05:39.162Z,100664.39
2018-12-10T11:08:06.633Z,100670.13
2018-12-10T11:10:34.067Z,100666.51
2018-12-10T11:13:01.483Z,100659.05
2018-12-10T11:15:28.899Z,100659.41
2018-12-10T11:17:56.333Z,100666.03
2018-12-10T11:20:23.770Z,100654.86
2018-12-10T11:22:51.200Z,100658.43
2018-12-10T11:25:18.618Z,100656.61
2018-12-10T11:27:46.024Z,100659.55
2018-12-10T11:30:13.439Z,100651.16
2018-12-10T11:32:40.891Z,100655.25
2018-12-10T11:35:08.320Z,100657.72
2018-12-10T11:37:35.730Z,100665.84
2018-12-10T11:40:03.180Z,100653.83
2018-12-10T11:42:30.614Z,100648.20
2018-12-10T11:44:58.022Z,100649.59
2018-12-10T11:47:25.443Z,100646.42
2018-12-10T11:49:52.852Z,100636.77
2018-12-10T11:52:20.270Z,100637.27
2018-12-10T11:54:47.690Z,100636.33
2018-12-10T11:57:15.138Z,100621.62
2018-12-10T11:59:42.562Z,100631.88
2018-12-10T12:02:09.979Z,100627.69
2018-12-10T12:04:37.398Z,100637.69
2018-12-10T12:07:04.839Z,100625.53
2018-12-10T12:09:32.263Z,100626.65
2018-12-10T12:11:59.699Z,100639.59
2018-12-10T12:14:27.135Z,100635.00
2018-12-10T12:16:54.566Z,100627.50
2018-12-10T12:19:22.098Z,100625.10
2018-12-10T12:21:49.530Z,100640.73
2018-12-10T12:24:16.943Z,100635.51
2018-12-10T12:26:45.597Z,100661.06
2018-12-10T12:29:13.210Z,100666.52
2018-12-10T12:31:40.611Z,100682.22
2018-12-10T12:34:08.042Z,100671.41
2018-12-10T12:36:35.448Z,100683.73
2018-12-10T12:39:02.994Z,100691.88
2018-12-10T12:41:30.418Z,100692.91
2018-12-10T12:43:57.833Z,100672.47
2018-12-10T12:46:25.256Z,100623.46
2018-12-10T12:48:52.682Z,100632.59
2018-12-10T12:51:20.149Z,100626.63
2018-12-10T12:53:47.555Z,100626.45
2018-12-10T12:56:14.973Z,100625.73
2018-12-10T12:58:42.407Z,100634.59
2018-12-10T13:01:09.824Z,100626.59
2018-12-10T13:03:37.244Z,100623.34
2018-12-10T13:06:07.014Z,100642.05
2018-12-10T13:08:34.148Z,100634.34
2018-12-10T13:11:01.578Z,100640.42
2018-12-10T13:13:29.022Z,100643.52
2018-12-10T13:15:56.436Z,100646.51
2018-12-10T13:18:23.852Z,100647.88
2018-12-10T13:20:51.266Z,100648.36
2018-12-10T13:23:18.703Z,100650.09
2018-12-10T13:25:46.134Z,100644.30
2018-12-10T13:28:13.571Z,100635.52
2018-12-10T13:30:40.995Z,100636.66
2018-12-10T13:33:08.403Z,100633.92
2018-12-10T13:38:07.674Z,100640.41
2018-12-10T13:40:32.730Z,100631.28
2018-12-10T13:43:00.163Z,100629.10
2018-12-10T13:45:31.051Z,100620.83
2018-12-10T13:47:57.030Z,100635.38
2018-12-10T13:50:24.439Z,100627.13
2018-12-10T13:52:51.959Z,100618.48
2018-12-10T13:55:19.399Z,100619.70
2018-12-10T13:57:46.850Z,100616.50
2018-12-10T14:00:14.354Z,100617.31
2018-12-10T14:02:41.795Z,100631.50
2018-12-10T14:05:10.970Z,100620.26
2018-12-10T14:07:38.392Z,100613.39
2018-12-10T14:10:06.366Z,100623.33
2018-12-10T14:12:33.799Z,100621.55
2018-12-10T14:15:01.329Z,100616.34
2018-12-10T14:17:28.782Z,100624.47
2018-12-10T14:19:56.222Z,100634.65
2018-12-10T14:22:23.636Z,100639.91
2018-12-10T14:24:51.055Z,100636.66
2018-12-10T14:27:18.526Z,100640.46
2018-12-10T14:29:45.991Z,100642.52
2018-12-10T14:32:13.476Z,100645.88
2018-12-10T14:34:40.918Z,100647.73
2018-12-10T14:37:08.338Z,100651.02
2018-12-10T14:39:35.782Z,100655.00
2018-12-10T14:42:03.219Z,100652.27
2018-12-10T14:44:30.690Z,100647.09
2018-12-10T14:46:58.107Z,100658.11
2018-12-10T14:49:25.552Z,100656.02
2018-12-10T14:51:52.977Z,100666.77
2018-12-10T14:54:20.399Z,100668.10
2018-12-10T14:56:47.822Z,100666.57
2018-12-10T14:59:15.239Z,100653.95
2018-12-10T15:01:42.662Z,100647.69
2018-12-10T15:04:10.096Z,100656.30
2018-12-10T15:06:37.543Z,100654.69
2018-12-10T15:09:06.299Z,100651.86
2018-12-10T15:11:33.712Z,100651.02
2018-12-10T15:14:01.128Z,100656.42
2018-12-10T15:16:28.547Z,100655.73
2018-12-10T15:18:56.007Z,100647.98
2018-12-10T15:21:23.442Z,100650.56
2018-12-10T15:23:50.866Z,100652.80
2018-12-10T15:26:18.317Z,100651.14
2018-12-10T15:28:45.744Z,100647.81
2018-12-10T15:31:13.182Z,100653.87
2018-12-10T15:33:42.249Z,100653.95
2018-12-10T15:36:09.671Z,100654.48
2018-12-10T15:38:37.082Z,100649.76
2018-12-10T15:41:04.551Z,100650.89
2018-12-10T15:43:31.966Z,100656.47
2018-12-10T15:45:59.387Z,100652.55
2018-12-10T15:48:26.802Z,100657.56
2018-12-10T15:50:54.224Z,100646.25
2018-12-10T15:53:21.646Z,100637.51
2018-12-10T15:55:49.292Z,100642.69
2018-12-10T15:58:16.738Z,100647.90
2018-12-10T16:00:44.155Z,100648.42
2018-12-10T16:03:11.618Z,100649.68
2018-12-10T16:05:39.077Z,100645.48
2018-12-10T16:08:06.493Z,100647.17
2018-12-10T16:10:33.927Z,100644.63
2018-12-10T16:13:01.354Z,100639.05
2018-12-10T16:15:28.791Z,100639.41
2018-12-10T16:17:56.220Z,100638.16
2018-12-10T16:20:23.731Z,100643.78
2018-12-10T16:22:51.135Z,100640.71
2018-12-10T16:25:18.559Z,100644.38
2018-12-10T16:27:46.123Z,100640.22
2018-12-10T16:30:14.192Z,100649.27
2018-12-10T16:32:41.638Z,100654.05
2018-12-10T16:35:09.180Z,100643.13
2018-12-10T16:37:36.594Z,100651.57
2018-12-10T16:40:05.480Z,100650.65
2018-12-10T16:42:33.043Z,100646.59
2018-12-10T16:45:00.494Z,100648.17
2018-12-10T16:47:27.954Z,100646.42
2018-12-10T16:49:55.430Z,100648.08
2018-12-10T16:52:22.858Z,100648.89
2018-12-10T16:54:50.302Z,100647.62
2018-12-10T16:57:17.728Z,100637.62
2018-12-10T16:59:45.138Z,100633.60
2018-12-10T17:02:12.579Z,100638.78
2018-12-10T17:04:40.039Z,100650.48
2018-12-10T17:07:08.430Z,100633.34
2018-12-10T17:09:37.707Z,100630.89
2018-12-10T17:12:05.655Z,100632.55
2018-12-10T17:14:33.092Z,100632.45
2018-12-10T17:17:00.530Z,100633.16
2018-12-10T17:19:28.042Z,100634.09
2018-12-10T17:21:55.455Z,100630.36
2018-12-10T17:24:22.890Z,100641.56
2018-12-10T17:26:50.334Z,100628.88
2018-12-10T17:29:17.774Z,100636.60
2018-12-10T17:31:45.193Z,100635.35
2018-12-10T17:34:12.615Z,100638.16
2018-12-10T17:36:40.095Z,100627.93
2018-12-10T17:39:08.342Z,100632.53
2018-12-10T17:41:36.314Z,100638.69
2018-12-10T17:44:03.786Z,100644.37
2018-12-10T17:46:31.233Z,100644.17
2018-12-10T17:48:58.663Z,100642.03
2018-12-10T17:51:26.084Z,100651.59
2018-12-10T17:53:53.831Z,100662.31
2018-12-10T17:56:21.246Z,100650.06
2018-12-10T17:58:48.691Z,100649.66
2018-12-10T18:01:16.173Z,100658.83
2018-12-10T18:03:43.997Z,100665.94
2018-12-10T18:06:11.439Z,100660.16
2018-12-10T18:08:38.895Z,100661.55
2018-12-10T18:11:06.338Z,100661.33
2018-12-10T18:13:33.866Z,100667.45
2018-12-10T18:16:01.278Z,100678.21
2018-12-10T18:18:28.707Z,100679.78
2018-12-10T18:20:56.126Z,100678.30
2018-12-10T18:23:23.563Z,100669.90
2018-12-10T18:25:50.993Z,100671.56
2018-12-10T18:28:18.413Z,100670.94
2018-12-10T18:30:45.882Z,100663.07
2018-12-10T18:33:13.302Z,100667.67
2018-12-10T18:35:40.756Z,100672.18
2018-12-10T18:38:08.194Z,100672.81
2018-12-10T18:40:35.620Z,100680.31
2018-12-10T18:43:03.046Z,100672.09
2018-12-10T18:45:30.698Z,100679.63
2018-12-10T18:47:58.308Z,100683.80
2018-12-10T18:50:25.908Z,100682.55
2018-12-10T18:52:53.327Z,100683.35
2018-12-10T18:55:20.754Z,100683.39
2018-12-10T18:57:48.184Z,100680.22
2018-12-10T19:00:15.614Z,100679.19
2018-12-10T19:02:43.066Z,100684.45
2018-12-10T19:05:10.583Z,100690.72
2018-12-10T19:07:38.043Z,100686.51
2018-12-10T19:10:06.722Z,100700.03
2018-12-10T19:12:34.694Z,100698.47
2018-12-10T19:15:02.380Z,100703.91
2018-12-10T19:17:29.830Z,100708.00
2018-12-10T19:19:57.247Z,100709.09
2018-12-10T19:22:24.712Z,100719.28
2018-12-10T19:24:52.183Z,100720.41
2018-12-10T19:27:19.599Z,100720.81
2018-12-10T19:29:47.032Z,100719.20
2018-12-10T19:32:14.494Z,100730.66
2018-12-10T19:34:41.926Z,100730.34
2018-12-10T19:37:09.350Z,100731.99
2018-12-10T19:39:36.771Z,100729.13
2018-12-10T19:42:04.224Z,100734.75
2018-12-10T19:44:31.639Z,100731.45
2018-12-10T19:46:59.087Z,100737.34
2018-12-10T19:49:26.534Z,100737.14
2018-12-10T19:51:53.998Z,100734.11
2018-12-10T19:54:21.439Z,100742.56
2018-12-10T19:56:48.864Z,100750.20
2018-12-10T19:59:16.295Z,100745.80
2018-12-10T20:01:43.735Z,100750.61
2018-12-10T20:04:11.200Z,100748.19
2018-12-10T20:09:40.271Z,100757.33
2018-12-10T20:12:07.714Z,100758.06
2018-12-10T20:14:35.163Z,100760.33
2018-12-10T20:17:02.604Z,100765.91
2018-12-10T20:19:30.040Z,100763.84
2018-12-10T20:21:57.460Z,100759.67
2018-12-10T20:24:24.924Z,100765.14
2018-12-10T20:26:52.416Z,100763.03
2018-12-10T20:29:20.013Z,100765.98
2018-12-10T20:31:47.514Z,100768.73
2018-12-10T20:34:14.971Z,100770.39
2018-12-10T20:36:42.537Z,100774.96
2018-12-10T20:39:10.031Z,100775.69
2018-12-10T20:41:37.463Z,100770.95
2018-12-10T20:44:04.867Z,100778.48
2018-12-10T20:46:32.313Z,100778.84
2018-12-10T20:48:59.727Z,100775.48
2018-12-10T20:51:27.228Z,100774.02
2018-12-10T20:53:54.696Z,100784.81
2018-12-10T20:56:22.120Z,100786.52
2018-12-10T20:58:49.558Z,100781.94
2018-12-10T21:01:17.007Z,100791.28
2018-12-10T21:03:44.424Z,100790.36
2018-12-10T21:06:17.503Z,100786.52
2018-12-10T21:08:44.927Z,100797.72
2018-12-10T21:11:12.358Z,100797.31
2018-12-10T21:13:39.923Z,100800.83
2018-12-10T21:16:07.335Z,100793.83
2018-12-10T21:18:34.764Z,100799.86
2018-12-10T21:21:02.193Z,100798.78
2018-12-10T21:23:29.664Z,100799.95
2018-12-10T21:25:57.139Z,100818.44
2018-12-10T21:28:24.559Z,100817.10
2018-12-10T21:30:52.010Z,100812.25
2018-12-10T21:33:19.440Z,100813.75
2018-12-10T21:35:46.855Z,100817.16
2018-12-10T21:38:14.314Z,100811.09
2018-12-10T21:40:41.730Z,100820.47
2018-12-10T21:43:09.139Z,100816.14
2018-12-10T21:45:36.571Z,100813.19
2018-12-10T21:48:04.026Z,100816.19
2018-12-10T21:50:31.439Z,100824.88
2018-12-10T21:52:58.855Z,100805.86
2018-12-10T21:55:26.302Z,100808.01
2018-12-10T21:57:53.773Z,100807.39
2018-12-10T22:00:21.219Z,100807.48
2018-12-10T22:02:48.718Z,100798.86
2018-12-10T22:05:16.151Z,100804.63
2018-12-10T22:07:43.594Z,100792.22
2018-12-10T22:10:11.003Z,100790.07
2018-12-10T22:12:38.436Z,100794.27
2018-12-10T22:15:05.890Z,100792.94
2018-12-10T22:17:33.356Z,100797.71
2018-12-10T22:20:01.419Z,100805.19
2018-12-10T22:22:28.867Z,100804.11
2018-12-10T22:24:57.240Z,100807.06
2018-12-10T22:27:24.655Z,100812.52
2018-12-10T22:29:52.081Z,100814.53
2018-12-10T22:32:19.579Z,100816.27
2018-12-10T22:34:46.990Z,100811.05
2018-12-10T22:37:14.423Z,100815.47
2018-12-10T22:39:41.841Z,100819.31
2018-12-10T22:42:09.258Z,100828.46
2018-12-10T22:44:36.709Z,100825.78
2018-12-10T22:47:04.118Z,100827.97
2018-12-10T22:49:31.540Z,100822.03
2018-12-10T22:51:58.961Z,100823.45
2018-12-10T22:54:26.395Z,100834.17
2018-12-10T22:56:53.799Z,100832.92
2018-12-10T22:59:21.219Z,100835.43
2018-12-10T23:01:48.640Z,100833.52
2018-12-10T23:04:16.081Z,100830.73
2018-12-10T23:06:43.530Z,100841.02
2018-12-10T23:09:10.987Z,100827.89
2018-12-10T23:11:38.406Z,100834.49
2018-12-10T23:14:05.846Z,100841.73
2018-12-10T23:16:33.290Z,100841.33
2018-12-10T23:19:00.702Z,100849.42
2018-12-10T23:21:28.124Z,100843.83
2018-12-10T23:23:55.530Z,100846.47
2018-12-10T23:26:22.942Z,100850.88
2018-12-10T23:28:50.364Z,100846.52
2018-12-10T23:31:17.787Z,100852.59
2018-12-10T23:33:45.208Z,100856.50
2018-12-10T23:36:12.663Z,100863.06
2018-12-10T23:38:40.082Z,100862.26
2018-12-10T23:41:07.504Z,100860.23
2018-12-10T23:43:34.930Z,100869.59
2018-12-10T23:46:02.355Z,100868.73
2018-12-10T23:48:29.775Z,100864.65
2018-12-10T23:50:57.226Z,100868.45
2018-12-10T23:53:24.641Z,100875.45
2018-12-10T23:55:52.091Z,100873.67
2018-12-10T23:58:19.516Z,100883.39
